This is the latest recevied weather packets stored in our database for station/object BMCB-11. If no packets are shown the sender has not sent any weather packets the latest 10 day(s).
| Time | Temp. | Humidity | Pressure | Rain* | Wind** | Luminosity | Snow |
|---|---|---|---|---|---|---|---|
| 1777480821 | 19.44° C | 32% | 1021.4 hPa | 0 mm | - | 202 W/m² | - |
| 1777471222 | 20.56° C | 37% | 1021.7 hPa | 0 mm | - | 524 W/m² | - |
| 1777462822 | 18.89° C | 41% | 1022.3 hPa | 0 mm | - | 638 W/m² | - |
| 1777461635 | 18.33° C | 42% | 1022.4 hPa | 0 mm | - | 634 W/m² | - |
| 1777459845 | 17.78° C | 43% | 1022.5 hPa | 0 mm | - | 622 W/m² | - |
| 1777458043 | 16.11° C | 45% | 1022.6 hPa | 0 mm | - | 604 W/m² | - |
| 1777457445 | 16.11° C | 45% | 1022.6 hPa | 0 mm | - | 594 W/m² | - |
| 1777456246 | 15.56° C | 46% | 1022.6 hPa | 0 mm | - | 570 W/m² | - |
| 1777452046 | 13.89° C | 49% | 1022.6 hPa | 0 mm | - | 458 W/m² | - |
| 1777450847 | 13.33° C | 50% | 1022.5 hPa | 0 mm | - | 416 W/m² | - |
| 1777447247 | 11.11° C | 54% | 1022.5 hPa | 0 mm | - | 276 W/m² | - |
| 1777443647 | 8.89° C | 58% | 1022.5 hPa | 0 mm | - | 44 W/m² | - |
| 1777443045 | 8.89° C | 58% | 1022.4 hPa | 0 mm | - | 26 W/m² | - |
| 1777428615 | 10° C | 63% | 1021.1 hPa | 0 mm | - | 0 W/m² | - |
| 1777427416 | 10° C | 62% | 1021.2 hPa | 0 mm | - | 0 W/m² | - |
| 1777417217 | 12.22° C | 53% | 1021 hPa | 0 mm | - | 0 W/m² | - |
| 1777407621 | 15° C | 47% | 1020.2 hPa | 0 mm | - | 0 W/m² | - |
| 1777405817 | 15.56° C | 48% | 1019.8 hPa | 0 mm | - | 0 W/m² | - |
| 1777401021 | 17.22° C | 45% | 1018.6 hPa | 0 mm | - | 14 W/m² | - |
| 1777383028 | 19.44° C | 41% | 1018.9 hPa | 0 mm | - | 546 W/m² | - |
| 1777381244 | 19.44° C | 44% | 1019 hPa | 0 mm | - | 600 W/m² | - |
| 1777378823 | 18.89° C | 48% | 1019.3 hPa | 0 mm | - | 604 W/m² | - |
| 1777375243 | 16.67° C | 55% | 1019.6 hPa | 0 mm | - | 668 W/m² | - |
| 1777374646 | 16.11° C | 56% | 1019.8 hPa | 0 mm | - | 534 W/m² | - |
| 1777372248 | 15° C | 60% | 1020.1 hPa | 0 mm | - | 528 W/m² | - |
* Rain latest hour (hover to see other rain measurements)
** Current wind speed in m/s (hover to see current wind gust speed)